Time;durP1;ratioP1;P1;durP2;ratioP2;P2;SDS_P1;SDS_P2;PMS_P1;PMS_P2;Temp;Humidity;BMP_temperature;BMP_pressure;BME280_temperature;BME280_humidity;BME280_pressure;Samples;Min_cycle;Max_cycle;Signal;HPM_P1;HPM_P2
2022/07/09 16:36:21;;;;;;;3.50;1.90;;;;;;;26.55;50.10;98423.06;6154433;23;20210;-89
2022/07/09 16:38:47;;;;;;;2.13;1.40;;;;;;;26.43;49.57;98426.50;6160705;23;20204;-91
2022/07/09 16:41:13;;;;;;;2.78;1.92;;;;;;;26.43;49.87;98431.88;6155815;23;20541;-91
2022/07/09 16:43:39;;;;;;;2.63;1.57;;;;;;;26.45;50.23;98436.03;6154601;23;20169;-89
2022/07/09 16:46:08;;;;;;;3.03;1.80;;;;;;;26.50;50.43;98422.00;6155763;23;20179;-90
2022/07/09 16:48:42;;;;;;;3.20;1.80;;;;;;;26.35;50.76;98429.34;6155748;23;20143;-89
2022/07/09 16:51:09;;;;;;;3.37;1.80;;;;;;;26.41;50.28;98433.94;6156453;23;20158;-89
2022/07/09 16:53:34;;;;;;;4.73;2.00;;;;;;;26.51;50.14;98435.25;6155786;23;20162;-89
2022/07/09 16:56:01;;;;;;;2.07;1.43;;;;;;;26.43;50.20;98448.00;6154615;23;20154;-89
2022/07/09 16:58:26;;;;;;;2.50;1.50;;;;;;;26.53;49.67;98445.78;6157523;23;20175;-89
2022/07/09 17:00:52;;;;;;;2.93;1.67;;;;;;;26.46;49.87;98442.25;6157678;23;20174;-91
2022/07/09 17:03:17;;;;;;;5.00;2.17;;;;;;;26.35;50.16;98450.84;6157942;23;20147;-90
2022/07/09 17:05:43;;;;;;;3.57;1.90;;;;;;;26.20;51.14;98453.66;6156797;23;20448;-90
2022/07/09 17:08:10;;;;;;;3.43;1.67;;;;;;;26.27;50.42;98456.38;6156407;23;20610;-90
2022/07/09 17:10:36;;;;;;;2.27;1.60;;;;;;;26.31;50.56;98455.78;6157099;23;20155;-89
2022/07/09 17:13:02;;;;;;;2.37;1.67;;;;;;;26.38;50.87;98463.91;6156307;23;20155;-91
2022/07/09 17:15:28;;;;;;;2.30;1.50;;;;;;;26.28;50.69;98458.88;6158517;23;20167;-90
2022/07/09 17:17:53;;;;;;;3.37;1.80;;;;;;;26.27;50.76;98462.59;6157323;23;20174;-90
2022/07/09 17:20:19;;;;;;;4.17;1.37;;;;;;;26.29;50.54;98468.59;6157479;23;20239;-90
2022/07/09 17:22:45;;;;;;;2.27;1.60;;;;;;;26.43;50.30;98470.34;6156562;23;20213;-89
2022/07/09 17:25:11;;;;;;;2.40;1.33;;;;;;;26.44;49.67;98471.19;6157231;23;20466;-90
2022/07/09 17:27:36;;;;;;;4.30;1.80;;;;;;;26.45;50.06;98470.13;6156172;23;20147;-89
2022/07/09 17:30:03;;;;;;;3.00;1.53;;;;;;;26.23;49.86;98477.44;6157708;23;20226;-89
2022/07/09 17:32:29;;;;;;;3.07;1.60;;;;;;;26.15;50.43;98480.28;6156522;23;20155;-90
2022/07/09 17:34:55;;;;;;;5.37;1.70;;;;;;;26.17;50.61;98491.66;6158031;23;20155;-89
2022/07/09 17:37:20;;;;;;;3.47;1.60;;;;;;;26.15;50.84;98483.78;6156214;23;20699;-88
2022/07/09 17:39:45;;;;;;;6.70;2.13;;;;;;;26.03;51.35;98501.44;6157187;23;20151;-89
2022/07/09 17:42:11;;;;;;;3.20;1.63;;;;;;;26.08;51.41;98498.97;6156078;23;20155;-90
2022/07/09 17:44:36;;;;;;;4.73;2.13;;;;;;;25.95;51.66;98503.41;6156452;23;20298;-91
2022/07/09 17:47:02;;;;;;;5.67;1.77;;;;;;;25.91;51.87;98497.63;6158243;23;20222;-89
2022/07/09 17:49:28;;;;;;;3.43;1.80;;;;;;;25.90;51.91;98495.94;6157118;23;20633;-90
2022/07/09 17:51:53;;;;;;;9.70;2.10;;;;;;;25.82;51.76;98489.88;6158190;23;20215;-89
2022/07/09 17:54:18;;;;;;;5.73;2.30;;;;;;;25.92;51.91;98498.41;6156293;23;20167;-90
2022/07/09 17:56:44;;;;;;;4.50;1.90;;;;;;;25.86;51.64;98494.69;6157402;23;20206;-90
2022/07/09 17:59:10;;;;;;;4.47;2.63;;;;;;;25.76;52.22;98510.25;6156247;23;20155;-89
2022/07/09 18:01:35;;;;;;;3.37;1.80;;;;;;;25.81;52.04;98505.16;6155828;23;20186;-90
2022/07/09 18:04:01;;;;;;;2.67;1.87;;;;;;;25.89;51.89;98504.19;6157674;23;20151;-90
2022/07/09 18:06:26;;;;;;;4.90;2.10;;;;;;;25.71;51.83;98504.63;6157391;23;20508;-90
2022/07/09 18:08:52;;;;;;;3.97;2.10;;;;;;;25.74;51.41;98512.31;6157284;23;20175;-89
2022/07/09 18:11:18;;;;;;;3.00;1.70;;;;;;;25.68;51.39;98507.72;6157344;23;20152;-88
2022/07/09 18:13:43;;;;;;;5.93;1.80;;;;;;;25.70;51.18;98512.88;6156087;23;20234;-89
2022/07/09 18:16:09;;;;;;;3.17;1.67;;;;;;;25.73;51.26;98510.66;6157212;23;20210;-90
2022/07/09 18:18:36;;;;;;;10.13;2.10;;;;;;;25.67;51.46;98516.78;6157485;23;20371;-89
2022/07/09 18:21:05;;;;;;;3.70;1.70;;;;;;;25.60;51.99;98515.91;6157237;23;20286;-91
2022/07/09 18:23:30;;;;;;;2.57;1.40;;;;;;;25.53;51.66;98512.28;6156829;23;20152;-89
2022/07/09 18:25:56;;;;;;;2.07;1.50;;;;;;;25.52;52.51;98514.13;6157546;23;20151;-90
2022/07/09 18:28:21;;;;;;;6.23;1.80;;;;;;;25.49;52.07;98517.22;6156875;23;20143;-90
2022/07/09 18:30:47;;;;;;;3.00;1.47;;;;;;;25.65;52.01;98518.84;6157152;23;20147;-89
2022/07/09 18:33:12;;;;;;;2.87;1.57;;;;;;;25.59;52.03;98520.44;6156826;23;20214;-90
2022/07/09 18:35:38;;;;;;;5.50;1.70;;;;;;;25.64;52.29;98528.75;6155646;23;20159;-88
2022/07/09 18:38:04;;;;;;;4.53;1.80;;;;;;;25.68;51.94;98528.38;6156479;23;20182;-91
2022/07/09 18:40:29;;;;;;;2.20;1.40;;;;;;;25.52;51.84;98524.06;6155578;23;20147;-89
2022/07/09 18:42:54;;;;;;;3.83;1.50;;;;;;;25.49;52.52;98525.28;6156663;23;20161;-90
2022/07/09 18:45:20;;;;;;;3.23;1.83;;;;;;;25.33;52.29;98525.47;6155462;23;20593;-90
2022/07/09 18:47:45;;;;;;;5.77;2.10;;;;;;;25.34;52.49;98529.78;6155422;23;20182;-88
2022/07/09 18:50:11;;;;;;;3.23;2.03;;;;;;;25.23;52.22;98535.69;6156749;23;20147;-89
2022/07/09 18:52:36;;;;;;;3.07;1.60;;;;;;;25.24;52.26;98533.78;6155422;23;20154;-90
2022/07/09 18:55:02;;;;;;;2.47;1.60;;;;;;;25.30;51.48;98536.56;6156835;23;20162;-90
2022/07/09 18:57:28;;;;;;;2.73;1.67;;;;;;;25.42;51.26;98540.41;6156441;23;20424;-89
2022/07/09 18:59:55;;;;;;;2.60;1.37;;;;;;;25.31;51.27;98548.16;6155769;23;20155;-90
2022/07/09 19:02:20;;;;;;;4.57;1.93;;;;;;;25.25;50.84;98546.22;6156423;23;20151;-91
2022/07/09 19:04:46;;;;;;;3.30;1.80;;;;;;;25.28;51.02;98546.66;6156445;23;20540;-89
2022/07/09 19:07:11;;;;;;;5.30;1.70;;;;;;;25.35;50.93;98554.78;6155272;23;20173;-89
2022/07/09 19:09:37;;;;;;;2.70;1.93;;;;;;;25.28;50.44;98565.44;6156400;23;20159;-90
2022/07/09 19:12:02;;;;;;;4.23;1.60;;;;;;;25.24;50.33;98560.63;6155201;23;20308;-90
2022/07/09 19:14:28;;;;;;;3.73;1.30;;;;;;;25.22;50.79;98562.66;6155187;23;20159;-91
2022/07/09 19:16:53;;;;;;;3.03;1.40;;;;;;;25.17;50.93;98563.25;6156603;23;20189;-89
2022/07/09 19:19:19;;;;;;;2.03;1.23;;;;;;;25.08;51.64;98568.91;6156975;23;20151;-90
2022/07/09 19:21:44;;;;;;;5.30;1.27;;;;;;;25.07;51.78;98568.06;6156395;23;20209;-90
2022/07/09 19:24:10;;;;;;;2.67;1.57;;;;;;;25.13;52.00;98575.34;6156893;23;20213;-89
2022/07/09 19:26:36;;;;;;;2.30;1.23;;;;;;;25.11;51.75;98568.50;6155795;23;20245;-91
2022/07/09 19:29:01;;;;;;;1.70;1.10;;;;;;;24.91;52.91;98574.44;6155057;23;20167;-90
2022/07/09 19:34:11;;;;;;;4.50;1.10;;;;;;;24.94;52.96;98583.97;6156541;23;20146;-91
2022/07/09 19:36:41;;;;;;;2.00;1.00;;;;;;;24.77;53.32;98585.13;6155386;23;20159;-93
2022/07/09 19:39:06;;;;;;;2.13;1.17;;;;;;;24.68;53.24;98589.75;6155219;23;20175;-89
2022/07/09 19:41:35;;;;;;;4.23;1.37;;;;;;;24.68;53.40;98579.03;6155334;23;20155;-89
2022/07/09 19:44:05;;;;;;;4.77;1.00;;;;;;;24.62;53.31;98579.75;6156781;23;20206;-90
2022/07/09 19:46:31;;;;;;;2.00;1.20;;;;;;;24.47;53.79;98581.56;6156745;23;20147;-89
2022/07/09 19:48:57;;;;;;;1.30;0.90;;;;;;;24.47;53.95;98570.88;6155301;23;20182;-88
2022/07/09 19:51:22;;;;;;;2.53;1.30;;;;;;;24.29;54.25;98573.03;6156060;23;20579;-89
2022/07/09 19:53:48;;;;;;;6.83;1.30;;;;;;;24.34;54.20;98576.00;6155192;23;20320;-89
2022/07/09 19:56:14;;;;;;;3.47;1.07;;;;;;;24.17;54.47;98571.78;6156011;23;20175;-91
2022/07/09 19:58:40;;;;;;;1.63;1.13;;;;;;;24.02;54.98;98576.22;6156260;23;20198;-89
2022/07/09 20:01:07;;;;;;;2.10;0.97;;;;;;;24.12;54.69;98568.81;6130670;23;20179;-89
2022/07/09 20:03:32;;;;;;;2.17;1.13;;;;;;;24.16;54.34;98578.19;6155966;23;20169;-91
2022/07/09 20:05:58;;;;;;;1.90;1.10;;;;;;;24.04;55.00;98568.84;6155983;23;20595;-90
2022/07/09 20:08:23;;;;;;;2.17;0.93;;;;;;;24.15;54.23;98568.47;6155882;23;20641;-89
2022/07/09 20:10:49;;;;;;;2.40;1.10;;;;;;;24.18;54.00;98570.78;6156210;23;20555;-89
2022/07/09 20:13:14;;;;;;;1.97;1.10;;;;;;;24.14;54.40;98569.47;6155472;23;20151;-89
2022/07/09 20:15:40;;;;;;;2.77;1.47;;;;;;;24.07;54.41;98568.50;6156269;23;20147;-89
2022/07/09 20:18:06;;;;;;;2.30;1.20;;;;;;;24.04;54.76;98575.03;6156002;23;20147;-88
2022/07/09 20:20:31;;;;;;;2.10;1.13;;;;;;;23.96;54.54;98582.28;6156010;23;20147;-89
2022/07/09 20:22:59;;;;;;;1.73;1.17;;;;;;;23.82;54.78;98579.38;6154787;23;20562;-91
2022/07/09 20:25:25;;;;;;;3.07;1.37;;;;;;;23.81;54.72;98579.56;6156524;23;20202;-90
2022/07/09 20:27:51;;;;;;;2.03;1.20;;;;;;;23.89;54.72;98571.47;6155769;23;20241;-90
2022/07/09 20:30:17;;;;;;;2.13;1.40;;;;;;;23.79;54.74;98570.88;6155892;23;20151;-88
2022/07/09 20:32:42;;;;;;;2.03;1.10;;;;;;;23.76;54.96;98572.06;6157579;23;20558;-89
2022/07/09 20:35:08;;;;;;;3.90;1.40;;;;;;;23.65;55.18;98575.16;6156680;23;20582;-89
2022/07/09 20:37:33;;;;;;;2.13;1.20;;;;;;;23.74;54.78;98578.63;6156886;23;20202;-90
2022/07/09 20:40:00;;;;;;;2.30;1.07;;;;;;;23.79;54.93;98569.03;6158479;23;20150;-88
2022/07/09 20:42:26;;;;;;;1.57;0.90;;;;;;;23.55;55.64;98568.34;6158126;23;20577;-91
2022/07/09 20:44:51;;;;;;;1.63;0.97;;;;;;;23.64;55.06;98568.13;6157790;23;20147;-90
2022/07/09 20:47:17;;;;;;;1.80;0.90;;;;;;;23.71;54.93;98568.25;6157709;23;20250;-89
2022/07/09 20:49:43;;;;;;;2.00;1.07;;;;;;;23.70;55.00;98569.25;6158092;23;20155;-89
2022/07/09 20:52:08;;;;;;;5.13;1.27;;;;;;;23.62;55.49;98566.63;6158110;23;20198;-90
2022/07/09 20:54:34;;;;;;;2.93;1.13;;;;;;;23.72;55.18;98565.41;6157704;23;20182;-90
2022/07/09 20:56:59;;;;;;;1.70;1.10;;;;;;;23.70;55.09;98562.06;6157689;23;20178;-88
2022/07/09 20:59:25;;;;;;;2.73;1.10;;;;;;;23.57;55.66;98561.81;6156418;23;20488;-87
2022/07/09 21:01:50;;;;;;;1.50;0.87;;;;;;;23.56;55.27;98548.59;6157610;23;20230;-88
2022/07/09 21:04:16;;;;;;;1.77;0.90;;;;;;;23.51;55.54;98550.97;6157613;23;20214;-89
2022/07/09 21:06:41;;;;;;;2.67;1.30;;;;;;;23.45;55.97;98557.88;6156645;23;20155;-89
2022/07/09 21:09:07;;;;;;;2.83;1.53;;;;;;;23.51;55.35;98548.28;6157800;23;20151;-89
2022/07/09 21:11:32;;;;;;;2.37;1.43;;;;;;;23.51;55.32;98551.81;6157517;23;20148;-90
2022/07/09 21:13:58;;;;;;;2.03;1.23;;;;;;;23.46;55.42;98548.84;6156603;23;20609;-89
2022/07/09 21:18:46;;;;;;;2.00;1.10;;;;;;;23.29;55.84;98538.38;6156242;23;20151;-88
2022/07/09 21:19:09;;;;;;;2.30;1.00;;;;;;;23.31;55.91;98545.22;6157384;23;20159;-87
2022/07/09 21:21:35;;;;;;;2.67;1.30;;;;;;;23.28;56.28;98540.22;6157755;23;20445;-91
2022/07/09 21:24:01;;;;;;;2.50;1.20;;;;;;;23.43;55.45;98545.66;6157393;23;20633;-86
2022/07/09 21:26:26;;;;;;;2.30;1.13;;;;;;;23.18;56.55;98548.47;6156561;23;20594;-90
2022/07/09 21:28:52;;;;;;;2.57;1.17;;;;;;;23.34;56.11;98552.06;6157240;23;20183;-88
2022/07/09 21:31:17;;;;;;;4.07;1.60;;;;;;;23.04;56.13;98543.84;6156489;23;20155;-86
2022/07/09 21:33:44;;;;;;;2.03;1.13;;;;;;;22.82;57.13;98543.75;6156423;23;20238;-88
2022/07/09 21:36:10;;;;;;;1.93;1.40;;;;;;;22.89;56.90;98542.91;6157243;23;20162;-91
2022/07/09 21:38:36;;;;;;;4.13;1.57;;;;;;;23.19;56.53;98535.94;6155971;23;20175;-89
2022/07/09 21:41:01;;;;;;;2.30;1.20;;;;;;;23.37;55.58;98533.88;6157208;23;20490;-88
2022/07/09 21:43:26;;;;;;;1.80;1.27;;;;;;;23.27;55.75;98543.88;6156974;23;20563;-87
2022/07/09 21:45:52;;;;;;;2.87;1.67;;;;;;;23.34;55.58;98541.34;6157180;23;20518;-89
2022/07/09 21:48:17;;;;;;;3.13;1.33;;;;;;;23.45;54.90;98543.69;6157068;23;20477;-88
2022/07/09 21:50:43;;;;;;;2.67;1.77;;;;;;;23.33;55.56;98543.19;6156310;23;20224;-89
2022/07/09 21:53:08;;;;;;;2.63;1.47;;;;;;;23.35;55.47;98541.16;6156313;23;20155;-88
2022/07/09 21:55:34;;;;;;;1.93;1.20;;;;;;;23.29;55.68;98541.88;6156258;23;20187;-89
2022/07/09 21:58:00;;;;;;;3.10;1.93;;;;;;;23.20;55.97;98542.94;6157439;23;20154;-87
2022/07/09 22:00:48;;;;;;;2.43;1.37;;;;;;;23.44;55.27;98550.03;6157684;23;20158;-88
2022/07/09 22:03:16;;;;;;;3.20;1.70;;;;;;;23.18;56.23;98543.13;6157109;23;20136;-88
2022/07/09 22:05:42;;;;;;;3.83;1.50;;;;;;;23.29;55.87;98547.25;6156148;23;20161;-88
2022/07/09 22:08:08;;;;;;;4.00;1.70;;;;;;;23.33;55.90;98540.53;6156053;23;20175;-89
2022/07/09 22:10:33;;;;;;;2.33;1.43;;;;;;;23.32;55.53;98538.88;6156130;23;20155;-86
2022/07/09 22:12:59;;;;;;;2.27;1.40;;;;;;;23.25;55.98;98535.22;6157273;23;20249;-87
2022/07/09 22:15:25;;;;;;;2.47;1.50;;;;;;;23.32;55.74;98541.56;6157293;23;20289;-88
2022/07/09 22:17:50;;;;;;;2.77;1.80;;;;;;;23.45;55.28;98539.16;6156950;23;20555;-88
2022/07/09 22:20:16;;;;;;;3.73;1.60;;;;;;;23.33;55.90;98543.19;6156905;23;20211;-87
2022/07/09 22:22:41;;;;;;;5.30;1.50;;;;;;;23.23;55.56;98548.78;6156860;23;20151;-87
2022/07/09 22:25:08;;;;;;;4.10;1.90;;;;;;;23.26;55.43;98547.59;6156858;23;20151;-87
2022/07/09 22:27:34;;;;;;;2.67;1.40;;;;;;;23.31;55.11;98545.22;6155582;23;20175;-87
2022/07/09 22:30:00;;;;;;;2.10;1.40;;;;;;;23.33;55.62;98545.88;6156764;23;20221;-86
2022/07/09 22:32:25;;;;;;;2.00;1.23;;;;;;;23.31;55.25;98545.22;6156759;23;20148;-87
2022/07/09 22:34:51;;;;;;;2.57;1.33;;;;;;;23.37;55.08;98555.25;6155628;23;20554;-88
2022/07/09 22:37:16;;;;;;;5.60;1.77;;;;;;;23.10;55.81;98548.50;6157048;23;20162;-89
2022/07/09 22:39:42;;;;;;;2.60;1.33;;;;;;;23.24;55.34;98544.25;6155938;23;20151;-88
2022/07/09 22:42:07;;;;;;;2.53;1.40;;;;;;;23.30;54.82;98550.72;6157020;23;20230;-87
2022/07/09 22:44:33;;;;;;;4.67;1.80;;;;;;;23.39;54.57;98550.56;6157366;23;20235;-87
2022/07/09 22:46:58;;;;;;;3.80;1.90;;;;;;;23.31;55.19;98550.56;6156564;23;20610;-87
2022/07/09 22:49:24;;;;;;;2.80;1.40;;;;;;;23.27;55.09;98556.44;6157331;23;20608;-88
2022/07/09 22:51:51;;;;;;;3.20;1.30;;;;;;;23.41;54.25;98548.53;6156904;23;20163;-87
2022/07/09 22:54:17;;;;;;;2.43;1.33;;;;;;;23.41;54.45;98551.22;6155225;23;20465;-88
2022/07/09 22:56:42;;;;;;;3.17;1.60;;;;;;;23.45;54.22;98552.53;6155388;23;20166;-87
2022/07/09 22:59:07;;;;;;;3.10;1.40;;;;;;;23.55;53.98;98554.97;6156511;23;20162;-88
2022/07/09 23:01:33;;;;;;;6.20;1.50;;;;;;;23.39;54.23;98550.56;6156468;23;20147;-88
2022/07/09 23:03:58;;;;;;;3.17;1.67;;;;;;;23.36;53.85;98548.19;6155302;23;20194;-89
2022/07/09 23:06:24;;;;;;;1.90;1.30;;;;;;;23.44;53.55;98547.34;6155297;23;20541;-87
2022/07/09 23:08:55;;;;;;;3.47;1.43;;;;;;;23.20;53.94;98554.47;6155141;23;20650;-88
2022/07/09 23:11:25;;;;;;;2.20;1.47;;;;;;;23.18;54.11;98547.63;6156775;23;20205;-87
2022/07/09 23:13:50;;;;;;;2.87;1.53;;;;;;;23.40;53.31;98549.53;6156367;23;20182;-87
2022/07/09 23:16:16;;;;;;;1.70;1.30;;;;;;;23.35;53.33;98545.72;6157006;23;20154;-90
2022/07/09 23:18:41;;;;;;;1.97;1.20;;;;;;;23.22;53.46;98546.25;6157056;23;20147;-89
2022/07/09 23:21:07;;;;;;;4.07;1.73;;;;;;;23.23;53.30;98539.91;6156286;23;20147;-87
2022/07/09 23:23:33;;;;;;;2.07;1.33;;;;;;;23.36;52.97;98548.19;6155120;23;20159;-87
2022/07/09 23:25:58;;;;;;;2.90;1.50;;;;;;;23.38;52.72;98548.88;6155042;23;20159;-87
2022/07/09 23:28:24;;;;;;;2.27;1.60;;;;;;;23.38;53.12;98545.38;6155280;23;20278;-87
2022/07/09 23:30:49;;;;;;;1.87;1.20;;;;;;;23.38;52.50;98556.91;6156583;23;20151;-88
2022/07/09 23:33:15;;;;;;;2.23;1.40;;;;;;;23.26;53.06;98550.25;6155422;23;20585;-87
2022/07/09 23:35:40;;;;;;;5.37;1.40;;;;;;;23.25;52.80;98545.91;6156839;23;20226;-86
2022/07/09 23:38:05;;;;;;;2.97;1.50;;;;;;;23.24;52.69;98549.59;6155173;23;20593;-87
2022/07/09 23:40:31;;;;;;;2.33;1.20;;;;;;;23.20;52.72;98548.28;6155317;23;20658;-87
2022/07/09 23:42:57;;;;;;;2.17;1.23;;;;;;;23.26;52.35;98542.25;6156082;23;20151;-88
2022/07/09 23:45:22;;;;;;;6.30;1.80;;;;;;;23.36;52.26;98536.66;6156809;23;20151;-86
2022/07/09 23:47:48;;;;;;;3.33;1.23;;;;;;;23.20;52.66;98534.91;6156654;23;20179;-90
2022/07/09 23:50:15;;;;;;;3.53;1.30;;;;;;;23.38;52.18;98540.00;6155237;23;20555;-88
2022/07/09 23:52:41;;;;;;;2.70;1.30;;;;;;;23.39;51.62;98537.19;6156055;23;20563;-88
2022/07/09 23:55:08;;;;;;;2.83;1.60;;;;;;;23.39;51.75;98531.84;6156096;23;20147;-90
2022/07/09 23:57:40;;;;;;;4.70;1.47;;;;;;;23.27;52.04;98531.34;6154858;23;20147;-87
